In Rescue
 
Open Full Screen Window  High Contrast Mode
Wind Gusting 00 knots
04
June 26, 2019 11:05 PM EDT
Weather Information
Wind Direction
  280 °
Wind Speed
  04 kt (5 mph)
Wind Gust
  00 kt (0 mph)
Altimeter
30.10 in
Visibility
10 SM
Temperature
22° C
72° F
Dewpoint
15° C
59° F
Humidity
65%
1hr Rain Fall
00.00 in.
24hr Rain Fall
00.00 in.
Sky Condition
Clear
VFR

METAR KONZ 270305Z AUTO 28004KT 10SM CLR 22/15 A3010 RMK AO2 T02190150

FAA Disclaimer: The data displayed is for advisory purposes only and is not to be used for flight planning or operations.